Time;durP1;ratioP1;P1;durP2;ratioP2;P2;SDS_P1;SDS_P2;PMS_P1;PMS_P2;Temp;Humidity;BMP_temperature;BMP_pressure;BME280_temperature;BME280_humidity;BME280_pressure;Samples;Min_cycle;Max_cycle;Signal;HPM_P1;HPM_P2
2023/07/24 00:01:27;;;;;;;;;;;;;;;20.11;nan;100171.78;4098910;28;19926;-66
2023/07/24 00:03:28;;;;;;;;;;;;;;;20.11;nan;100182.75;4097978;28;20017;-66
2023/07/24 00:05:30;;;;;;;;;;;;;;;20.10;nan;100170.13;4098834;28;20009;-67
2023/07/24 00:07:32;;;;;;;;;;;;;;;20.09;nan;100163.81;4098094;28;20022;-67
2023/07/24 00:09:34;;;;;;;;;;;;;;;20.10;nan;100165.47;4098801;28;20025;-66
2023/07/24 00:11:36;;;;;;;;;;;;;;;20.10;nan;100162.72;4098280;28;20018;-66
2023/07/24 00:13:38;;;;;;;;;;;;;;;20.10;nan;100162.72;4098119;28;20365;-67
2023/07/24 00:15:40;;;;;;;;;;;;;;;20.11;nan;100158.91;4113590;28;20460;-66
2023/07/24 00:17:44;;;;;;;;;;;;;;;20.12;nan;100157.81;4098173;28;20017;-67
2023/07/24 00:19:45;;;;;;;;;;;;;;;20.13;nan;100154.00;4097402;28;20130;-67
2023/07/24 00:21:47;;;;;;;;;;;;;;;20.13;nan;100155.91;4098454;28;20012;-66
2023/07/24 00:23:49;;;;;;;;;;;;;;;20.12;nan;100157.00;4097527;28;20017;-66
2023/07/24 00:25:51;;;;;;;;;;;;;;;20.13;nan;100147.69;4098077;28;20029;-67
2023/07/24 00:27:53;;;;;;;;;;;;;;;20.11;nan;100153.44;4097559;28;20049;-66
2023/07/24 00:29:55;;;;;;;;;;;;;;;20.13;nan;100150.44;4103788;28;20040;-66
2023/07/24 00:31:56;;;;;;;;;;;;;;;20.12;nan;100146.03;4097616;29;20018;-67
2023/07/24 00:34:00;;;;;;;;;;;;;;;20.12;nan;100138.63;4097875;28;19922;-65
2023/07/24 00:36:02;;;;;;;;;;;;;;;20.13;nan;100137.53;4096688;28;20036;-66
2023/07/24 00:38:03;;;;;;;;;;;;;;;20.15;nan;100151.81;4113046;28;20377;-66
2023/07/24 00:40:05;;;;;;;;;;;;;;;20.16;nan;100134.28;4097521;28;19970;-66
2023/07/24 00:42:07;;;;;;;;;;;;;;;20.15;nan;100135.38;4088286;28;20017;-66
2023/07/24 00:44:09;;;;;;;;;;;;;;;20.16;nan;100128.81;4096898;28;20013;-67
2023/07/24 00:46:11;;;;;;;;;;;;;;;20.17;nan;100118.66;4098043;28;20028;-67
2023/07/24 00:48:13;;;;;;;;;;;;;;;20.17;nan;100121.41;4097499;28;20517;-67
2023/07/24 00:50:16;;;;;;;;;;;;;;;20.20;nan;100125.56;4097117;28;20009;-66
2023/07/24 00:52:18;;;;;;;;;;;;;;;20.21;nan;100125.31;4096023;28;20005;-66
2023/07/24 00:54:20;;;;;;;;;;;;;;;20.22;nan;100117.91;4097797;28;20013;-66
2023/07/24 00:56:22;;;;;;;;;;;;;;;20.22;nan;100115.16;4098132;28;20040;-67
2023/07/24 00:58:24;;;;;;;;;;;;;;;20.23;nan;100119.56;4096821;28;20403;-66
2023/07/24 01:00:26;;;;;;;;;;;;;;;20.24;nan;100121.22;4097167;28;20494;-67
2023/07/24 01:02:27;;;;;;;;;;;;;;;20.25;nan;100120.97;4095027;28;20021;-66
2023/07/24 01:04:29;;;;;;;;;;;;;;;20.23;nan;100114.09;4095138;28;19926;-66
2023/07/24 01:06:34;;;;;;;;;;;;;;;20.22;nan;100113.25;4096758;29;20395;-66
2023/07/24 01:08:38;;;;;;;;;;;;;;;20.22;nan;100113.25;4097639;28;20013;-67
2023/07/24 01:10:40;;;;;;;;;;;;;;;20.22;nan;100109.66;4103948;28;20021;-66
2023/07/24 01:12:51;;;;;;;;;;;;;;;20.21;nan;100099.81;4087865;28;20005;-66
2023/07/24 01:14:56;;;;;;;;;;;;;;;20.21;nan;100094.31;4097622;28;20049;-67
2023/07/24 01:16:58;;;;;;;;;;;;;;;20.19;nan;100100.06;4088939;28;20017;-66
2023/07/24 01:18:59;;;;;;;;;;;;;;;20.19;nan;100093.75;4097065;28;20066;-66
2023/07/24 01:21:00;;;;;;;;;;;;;;;20.17;nan;100097.59;4096932;28;19973;-66
2023/07/24 01:23:08;;;;;;;;;;;;;;;20.15;nan;100096.16;4096202;28;20597;-67
2023/07/24 01:25:11;;;;;;;;;;;;;;;20.13;nan;100099.16;4097543;28;20012;-67
2023/07/24 01:27:20;;;;;;;;;;;;;;;20.11;nan;100098.59;4097623;28;20022;-66
2023/07/24 01:29:23;;;;;;;;;;;;;;;20.10;nan;100094.19;4097025;28;20029;-67
2023/07/24 01:31:25;;;;;;;;;;;;;;;20.09;nan;100089.78;4096750;28;20030;-66
2023/07/24 01:33:26;;;;;;;;;;;;;;;20.07;nan;100088.41;4097267;28;20017;-66
2023/07/24 01:35:28;;;;;;;;;;;;;;;20.06;nan;100097.69;4097280;28;20017;-66
2023/07/24 01:37:30;;;;;;;;;;;;;;;20.04;nan;100092.47;4095799;28;20024;-66
2023/07/24 01:39:32;;;;;;;;;;;;;;;20.04;nan;100092.47;4095915;28;20495;-66
2023/07/24 01:41:34;;;;;;;;;;;;;;;20.01;nan;100090.25;4096224;28;20424;-66
2023/07/24 01:43:37;;;;;;;;;;;;;;;20.01;nan;100086.69;4096598;28;20444;-66
2023/07/24 01:45:38;;;;;;;;;;;;;;;20.01;nan;100086.69;4097372;28;20026;-66
2023/07/24 01:47:42;;;;;;;;;;;;;;;20.00;nan;100088.63;4095966;28;20574;-66
2023/07/24 01:49:43;;;;;;;;;;;;;;;19.98;nan;100091.59;4095644;28;20013;-66
2023/07/24 01:51:45;;;;;;;;;;;;;;;19.97;nan;100086.38;4097275;28;20515;-66
2023/07/24 01:53:46;;;;;;;;;;;;;;;19.94;nan;100078.66;4096738;28;20009;-66
2023/07/24 01:55:48;;;;;;;;;;;;;;;19.94;nan;100089.63;4096798;28;19926;-67
2023/07/24 01:57:50;;;;;;;;;;;;;;;19.95;nan;100080.31;4095126;28;20008;-66
2023/07/24 01:59:54;;;;;;;;;;;;;;;19.92;nan;100086.28;4095024;28;20016;-66
2023/07/24 02:01:55;;;;;;;;;;;;;;;19.92;nan;100073.44;4096652;28;20020;-66
2023/07/24 02:03:57;;;;;;;;;;;;;;;19.90;nan;100083.81;4079966;29;20026;-66
2023/07/24 02:05:59;;;;;;;;;;;;;;;19.88;nan;100077.75;4088626;28;20021;-66
2023/07/24 02:08:01;;;;;;;;;;;;;;;19.87;nan;100081.56;4097010;28;20020;-66
2023/07/24 02:10:04;;;;;;;;;;;;;;;19.88;nan;100072.28;4096614;28;20025;-66
2023/07/24 02:12:06;;;;;;;;;;;;;;;19.89;nan;100073.09;4095786;28;20025;-67
2023/07/24 02:14:09;;;;;;;;;;;;;;;19.89;nan;100065.72;4096115;28;20397;-66
2023/07/24 02:16:13;;;;;;;;;;;;;;;19.90;nan;100067.38;4097034;28;20041;-66
2023/07/24 02:18:15;;;;;;;;;;;;;;;19.91;nan;100068.22;4097210;28;20009;-67
2023/07/24 02:20:17;;;;;;;;;;;;;;;19.90;nan;100070.09;4088197;28;20038;-66
2023/07/24 02:22:19;;;;;;;;;;;;;;;19.92;nan;100064.38;4096395;28;20009;-66
2023/07/24 02:24:21;;;;;;;;;;;;;;;19.93;nan;100066.03;4100514;28;20013;-66
2023/07/24 02:26:22;;;;;;;;;;;;;;;19.92;nan;100059.75;4099837;28;20013;-66
2023/07/24 02:28:24;;;;;;;;;;;;;;;19.93;nan;100064.13;4099159;28;19948;-67
2023/07/24 02:30:28;;;;;;;;;;;;;;;19.94;nan;100057.56;4099205;28;20010;-66
2023/07/24 02:32:32;;;;;;;;;;;;;;;19.94;nan;100057.56;4099882;28;20032;-67
2023/07/24 02:34:34;;;;;;;;;;;;;;;19.95;nan;100059.22;4107310;28;20017;-66
2023/07/24 02:36:36;;;;;;;;;;;;;;;19.96;nan;100062.78;4099758;28;20021;-67
2023/07/24 02:38:38;;;;;;;;;;;;;;;19.95;nan;100059.22;4098809;28;20020;-66
2023/07/24 02:40:42;;;;;;;;;;;;;;;19.96;nan;100068.28;4099273;28;20021;-66
2023/07/24 02:42:44;;;;;;;;;;;;;;;19.96;nan;100069.09;4114329;28;20013;-66
2023/07/24 02:44:47;;;;;;;;;;;;;;;19.96;nan;100071.00;4098750;28;20017;-67
2023/07/24 02:46:48;;;;;;;;;;;;;;;19.95;nan;100075.66;4099861;28;20087;-67
2023/07/24 02:48:52;;;;;;;;;;;;;;;19.94;nan;100076.75;4099896;28;19935;-67
2023/07/24 02:50:54;;;;;;;;;;;;;;;19.93;nan;100085.22;4114657;28;19981;-66
2023/07/24 02:52:56;;;;;;;;;;;;;;;19.92;nan;100078.94;4098443;28;20002;-66
2023/07/24 02:54:58;;;;;;;;;;;;;;;19.93;nan;100075.06;4099728;28;20029;-66
2023/07/24 02:57:00;;;;;;;;;;;;;;;19.95;nan;100077.56;4099747;28;20436;-66
2023/07/24 02:59:02;;;;;;;;;;;;;;;19.94;nan;100087.72;4098774;28;20061;-66
2023/07/24 03:01:05;;;;;;;;;;;;;;;19.95;nan;100086.63;4098384;28;20016;-66
2023/07/24 03:03:07;;;;;;;;;;;;;;;19.93;nan;100077.81;4085676;28;20010;-66
2023/07/24 03:05:11;;;;;;;;;;;;;;;19.95;nan;100085.78;4113786;28;20012;-66
2023/07/24 03:07:12;;;;;;;;;;;;;;;19.95;nan;100086.63;4113364;28;20052;-66
2023/07/24 03:09:14;;;;;;;;;;;;;;;19.94;nan;100095.94;4098719;28;20402;-66
2023/07/24 03:11:16;;;;;;;;;;;;;;;19.96;nan;100092.94;4098400;28;20032;-66
2023/07/24 03:13:19;;;;;;;;;;;;;;;19.95;nan;100099.50;4099609;28;20009;-66
2023/07/24 03:15:21;;;;;;;;;;;;;;;19.95;nan;100091.25;4099719;28;20387;-66
2023/07/24 03:17:25;;;;;;;;;;;;;;;19.96;nan;100095.69;4098053;28;20012;-67
2023/07/24 03:19:27;;;;;;;;;;;;;;;19.97;nan;100100.09;4099221;28;20017;-65
2023/07/24 03:21:30;;;;;;;;;;;;;;;19.97;nan;100098.16;4099059;28;20017;-66
2023/07/24 03:23:32;;;;;;;;;;;;;;;19.98;nan;100097.09;4098769;28;20025;-65
2023/07/24 03:25:35;;;;;;;;;;;;;;;19.98;nan;100093.50;4096975;28;20047;-67
2023/07/24 03:27:37;;;;;;;;;;;;;;;19.99;nan;100095.97;4098996;28;20026;-66
2023/07/24 03:29:40;;;;;;;;;;;;;;;19.99;nan;100095.97;4098861;28;20021;-67
2023/07/24 03:31:42;;;;;;;;;;;;;;;20.02;nan;100096.56;4098772;28;20017;-67
2023/07/24 03:33:44;;;;;;;;;;;;;;;20.01;nan;100101.22;4099897;28;20021;-66
2023/07/24 03:35:46;;;;;;;;;;;;;;;20.01;nan;100101.22;4097976;28;20033;-66
2023/07/24 03:37:49;;;;;;;;;;;;;;;20.02;nan;100096.56;4098393;28;20009;-66
2023/07/24 03:39:51;;;;;;;;;;;;;;;20.01;nan;100090.25;4097771;28;20469;-66
2023/07/24 03:41:53;;;;;;;;;;;;;;;20.01;nan;100094.91;4099021;28;20024;-66
2023/07/24 03:43:55;;;;;;;;;;;;;;;20.03;nan;100099.06;4098469;28;20005;-66
2023/07/24 03:45:57;;;;;;;;;;;;;;;20.02;nan;100100.13;4099158;28;20017;-66
2023/07/24 03:48:01;;;;;;;;;;;;;;;20.06;nan;100084.00;4097511;28;20009;-66
2023/07/24 03:50:03;;;;;;;;;;;;;;;20.04;nan;100097.97;4098681;28;20025;-66
2023/07/24 03:52:05;;;;;;;;;;;;;;;20.03;nan;100099.06;4098900;28;20025;-66
2023/07/24 03:54:08;;;;;;;;;;;;;;;20.02;nan;100097.41;4097706;28;20028;-66
2023/07/24 03:56:10;;;;;;;;;;;;;;;20.02;nan;100086.44;4098188;28;20024;-66
2023/07/24 03:58:13;;;;;;;;;;;;;;;20.01;nan;100087.50;4099073;28;20047;-66
2023/07/24 04:00:15;;;;;;;;;;;;;;;20.01;nan;100089.44;4098674;28;20548;-67
2023/07/24 04:02:17;;;;;;;;;;;;;;;20.00;nan;100085.88;4099484;28;20371;-66
2023/07/24 04:04:19;;;;;;;;;;;;;;;19.99;nan;100093.25;4097956;28;20364;-66
2023/07/24 04:06:21;;;;;;;;;;;;;;;20.01;nan;100092.16;4098597;28;20021;-66
2023/07/24 04:08:23;;;;;;;;;;;;;;;20.04;nan;100089.75;4098371;28;20017;-67
2023/07/24 04:10:26;;;;;;;;;;;;;;;20.03;nan;100084.50;4098011;28;20029;-66
2023/07/24 04:12:29;;;;;;;;;;;;;;;20.02;nan;100089.16;4096428;28;20371;-66
2023/07/24 04:14:30;;;;;;;;;;;;;;;19.99;nan;100084.19;4098832;28;20432;-67
2023/07/24 04:16:32;;;;;;;;;;;;;;;19.98;nan;100086.13;4098532;28;20017;-66
2023/07/24 04:18:35;;;;;;;;;;;;;;;19.99;nan;100087.75;4097836;28;20474;-67
2023/07/24 04:20:38;;;;;;;;;;;;;;;20.00;nan;100083.13;4097855;28;21340;-66
2023/07/24 04:22:40;;;;;;;;;;;;;;;20.01;nan;100078.47;4098853;28;20433;-66
2023/07/24 04:24:42;;;;;;;;;;;;;;;20.01;nan;100078.47;4098366;28;20005;-66
2023/07/24 04:26:45;;;;;;;;;;;;;;;20.02;nan;100080.94;4099314;28;20021;-66
2023/07/24 04:28:47;;;;;;;;;;;;;;;20.02;nan;100091.91;4096736;28;20022;-66
2023/07/24 04:30:49;;;;;;;;;;;;;;;20.01;nan;100082.03;4097868;29;20033;-66
2023/07/24 04:32:51;;;;;;;;;;;;;;;20.01;nan;100079.28;4096899;28;20005;-66
2023/07/24 04:34:53;;;;;;;;;;;;;;;20.04;nan;100083.44;4098110;28;20025;-66
2023/07/24 04:36:55;;;;;;;;;;;;;;;20.06;nan;100084.84;4097483;28;20008;-67
2023/07/24 04:38:57;;;;;;;;;;;;;;;20.07;nan;100080.19;4097360;28;20375;-66
2023/07/24 04:41:01;;;;;;;;;;;;;;;20.10;nan;100082.41;4097733;28;20053;-66
2023/07/24 04:43:04;;;;;;;;;;;;;;;20.13;nan;100090.13;4096232;28;20013;-66
2023/07/24 04:45:07;;;;;;;;;;;;;;;20.14;nan;100078.91;4097553;28;20018;-67
2023/07/24 04:47:08;;;;;;;;;;;;;;;20.15;nan;100086.03;4097632;28;20025;-66
2023/07/24 04:49:10;;;;;;;;;;;;;;;20.15;nan;100077.81;4096956;28;20379;-66
2023/07/24 04:51:12;;;;;;;;;;;;;;;20.17;nan;100072.91;4096365;28;20021;-67
2023/07/24 04:53:14;;;;;;;;;;;;;;;20.21;nan;100072.41;4097263;28;20013;-66
2023/07/24 04:55:16;;;;;;;;;;;;;;;20.22;nan;100074.03;4097750;28;20010;-66
2023/07/24 04:57:18;;;;;;;;;;;;;;;20.22;nan;100080.38;4096861;28;20009;-67
2023/07/24 04:59:21;;;;;;;;;;;;;;;20.25;nan;100079.00;4097066;28;20021;-66
2023/07/24 05:01:23;;;;;;;;;;;;;;;20.22;nan;100074.88;4097671;28;20012;-67
2023/07/24 05:03:24;;;;;;;;;;;;;;;20.29;nan;100077.41;4096609;28;20037;-66
2023/07/24 05:05:26;;;;;;;;;;;;;;;20.30;nan;100077.16;4097612;28;20020;-66
2023/07/24 05:07:28;;;;;;;;;;;;;;;20.33;nan;100070.34;4096031;28;20009;-67
2023/07/24 05:09:30;;;;;;;;;;;;;;;20.35;nan;100065.41;4097090;28;20009;-65
2023/07/24 05:11:32;;;;;;;;;;;;;;;20.38;nan;100064.06;4096910;28;20260;-66
2023/07/24 05:13:34;;;;;;;;;;;;;;;20.40;nan;100070.94;4097731;28;20025;-66
2023/07/24 05:15:37;;;;;;;;;;;;;;;20.44;nan;100060.28;4090165;28;20006;-66
2023/07/24 05:17:39;;;;;;;;;;;;;;;20.46;nan;100058.94;4096906;28;20389;-66
2023/07/24 05:19:42;;;;;;;;;;;;;;;20.48;nan;100059.50;4097406;28;20476;-66
2023/07/24 05:21:43;;;;;;;;;;;;;;;20.53;nan;100055.97;4097620;28;20017;-66
2023/07/24 05:23:44;;;;;;;;;;;;;;;20.54;nan;100049.41;4096482;28;19930;-66
2023/07/24 05:25:46;;;;;;;;;;;;;;;20.55;nan;100056.56;4097520;28;20005;-66
2023/07/24 05:27:48;;;;;;;;;;;;;;;20.57;nan;100059.03;4096609;28;20008;-66
2023/07/24 05:29:50;;;;;;;;;;;;;;;20.58;nan;100049.72;4097238;28;20025;-66
2023/07/24 05:31:54;;;;;;;;;;;;;;;20.61;nan;100050.03;4096736;28;20012;-66
2023/07/24 05:33:56;;;;;;;;;;;;;;;20.62;nan;100053.59;4096770;28;20061;-65
2023/07/24 05:36:00;;;;;;;;;;;;;;;20.63;nan;100058.00;4096316;28;20013;-66
2023/07/24 05:38:02;;;;;;;;;;;;;;;20.65;nan;100050.38;4096806;28;20341;-67
2023/07/24 05:40:05;;;;;;;;;;;;;;;20.66;nan;100052.84;4095850;28;20013;-65
2023/07/24 05:42:07;;;;;;;;;;;;;;;20.68;nan;100039.69;4096668;28;20013;-66
2023/07/24 05:44:09;;;;;;;;;;;;;;;20.70;nan;100043.03;4096582;28;20025;-66
2023/07/24 05:46:11;;;;;;;;;;;;;;;20.73;nan;100049.88;4097000;28;20001;-66
2023/07/24 05:48:14;;;;;;;;;;;;;;;20.75;nan;100044.13;4095533;28;20034;-66
2023/07/24 05:50:16;;;;;;;;;;;;;;;20.78;nan;100041.69;4096394;28;20021;-67
2023/07/24 05:52:18;;;;;;;;;;;;;;;20.82;nan;100033.78;4096544;28;20013;-67
2023/07/24 05:54:19;;;;;;;;;;;;;;;20.84;nan;100034.31;4096643;28;20025;-67
2023/07/24 05:56:21;;;;;;;;;;;;;;;20.88;nan;100030.78;4096322;28;20021;-67
2023/07/24 05:58:23;;;;;;;;;;;;;;;20.92;nan;100027.53;4096173;28;20030;-66
2023/07/24 06:00:25;;;;;;;;;;;;;;;20.94;nan;100019.84;4097111;28;20025;-67
2023/07/24 06:02:27;;;;;;;;;;;;;;;20.94;nan;100020.69;4096971;28;20037;-65
2023/07/24 06:04:30;;;;;;;;;;;;;;;20.95;nan;100013.28;4096736;28;20009;-66
2023/07/24 06:06:32;;;;;;;;;;;;;;;20.98;nan;100016.31;4097575;28;20014;-66
2023/07/24 06:08:34;;;;;;;;;;;;;;;21.01;nan;100014.97;4096438;28;20360;-66
2023/07/24 06:10:36;;;;;;;;;;;;;;;21.04;nan;100020.75;4096895;28;20448;-67
2023/07/24 06:12:38;;;;;;;;;;;;;;;21.09;nan;100008.97;4096149;28;20013;-67
2023/07/24 06:14:40;;;;;;;;;;;;;;;21.13;nan;100020.25;4096674;28;20021;-67
2023/07/24 06:16:42;;;;;;;;;;;;;;;21.18;nan;100014.81;4097043;28;20033;-66
2023/07/24 06:18:44;;;;;;;;;;;;;;;21.19;nan;99998.06;4096005;28;20017;-67
2023/07/24 06:20:49;;;;;;;;;;;;;;;21.20;nan;100007.13;4096750;28;20017;-66
2023/07/24 06:22:51;;;;;;;;;;;;;;;21.21;nan;100000.53;4095081;28;20017;-66
2023/07/24 06:24:53;;;;;;;;;;;;;;;21.24;nan;100005.50;4097049;28;20363;-67
2023/07/24 06:26:55;;;;;;;;;;;;;;;21.26;nan;100000.56;4096527;28;20018;-66
2023/07/24 06:28:57;;;;;;;;;;;;;;;21.32;nan;100005.00;4096834;28;20440;-66
2023/07/24 06:30:59;;;;;;;;;;;;;;;21.33;nan;100003.06;4096917;28;20026;-66
2023/07/24 06:33:01;;;;;;;;;;;;;;;21.34;nan;99997.31;4096742;28;20009;-66
2023/07/24 06:35:03;;;;;;;;;;;;;;;21.34;nan;99988.25;4095935;28;20049;-67
2023/07/24 06:37:06;;;;;;;;;;;;;;;21.36;nan;99988.81;4096706;28;20021;-67
2023/07/24 06:39:08;;;;;;;;;;;;;;;21.37;nan;99984.97;4096378;28;20017;-67
2023/07/24 06:41:10;;;;;;;;;;;;;;;21.38;nan;99981.16;4096434;29;20017;-66
2023/07/24 06:43:12;;;;;;;;;;;;;;;21.40;nan;99978.94;4096107;28;20345;-66
2023/07/24 06:45:14;;;;;;;;;;;;;;;21.44;nan;99980.03;4112239;28;19960;-67
2023/07/24 06:47:16;;;;;;;;;;;;;;;21.45;nan;99983.63;4096538;28;20013;-67
2023/07/24 06:49:18;;;;;;;;;;;;;;;21.47;nan;99979.50;4096802;28;20030;-66
2023/07/24 06:51:19;;;;;;;;;;;;;;;21.47;nan;99973.19;4095728;28;20444;-65
2023/07/24 06:53:22;;;;;;;;;;;;;;;21.49;nan;99979.28;4096125;28;19933;-66
2023/07/24 06:55:24;;;;;;;;;;;;;;;21.52;nan;99978.75;4096858;28;20309;-66
2023/07/24 06:57:26;;;;;;;;;;;;;;;21.58;nan;99983.16;4095888;28;20065;-66
2023/07/24 06:59:28;;;;;;;;;;;;;;;21.62;nan;99988.97;4095101;28;20026;-66
2023/07/24 07:01:30;;;;;;;;;;;;;;;21.67;nan;99988.97;4096344;28;20021;-66
2023/07/24 07:03:34;;;;;;;;;;;;;;;21.71;nan;99979.09;4096118;28;19998;-65
2023/07/24 07:05:36;;;;;;;;;;;;;;;21.74;nan;99967.53;4097521;28;20038;-66
2023/07/24 07:07:39;;;;;;;;;;;;;;;21.69;nan;99951.06;4095389;28;20024;-66
2023/07/24 07:09:42;;;;;;;;;;;;;;;21.74;nan;99967.53;4096705;28;20025;-66
2023/07/24 07:11:44;;;;;;;;;;;;;;;21.77;nan;99956.84;4098639;28;20021;-67
2023/07/24 07:13:45;;;;;;;;;;;;;;;21.82;nan;99969.78;4098817;28;20353;-66
2023/07/24 07:15:47;;;;;;;;;;;;;;;21.84;nan;99962.09;4100165;28;19969;-66
2023/07/24 07:17:49;;;;;;;;;;;;;;;21.85;nan;99958.25;4098629;28;20033;-66
2023/07/24 07:19:51;;;;;;;;;;;;;;;21.86;nan;99959.06;4100062;28;20064;-67
2023/07/24 07:21:53;;;;;;;;;;;;;;;21.88;nan;99957.72;4099130;28;20029;-66
2023/07/24 07:23:55;;;;;;;;;;;;;;;21.88;nan;99957.72;4098641;28;20034;-65
2023/07/24 07:25:58;;;;;;;;;;;;;;;21.90;nan;99960.19;4099242;28;20009;-66
2023/07/24 07:28:00;;;;;;;;;;;;;;;21.96;nan;99959.91;4098826;28;20041;-66
2023/07/24 07:30:03;;;;;;;;;;;;;;;22.00;nan;99953.88;4099214;28;20021;-67
2023/07/24 07:32:05;;;;;;;;;;;;;;;22.02;nan;99947.03;4099105;28;20015;-65
2023/07/24 07:34:08;;;;;;;;;;;;;;;22.04;nan;99955.81;4099397;28;20368;-66
2023/07/24 07:36:11;;;;;;;;;;;;;;;22.08;nan;99951.41;4098829;28;20370;-66
2023/07/24 07:38:13;;;;;;;;;;;;;;;22.11;nan;99947.28;4097656;28;20025;-67
2023/07/24 07:40:15;;;;;;;;;;;;;;;22.13;nan;99962.44;4098834;28;20393;-67
2023/07/24 07:42:18;;;;;;;;;;;;;;;22.17;nan;99976.44;4096907;28;20005;-66
2023/07/24 07:44:20;;;;;;;;;;;;;;;22.19;nan;99979.75;4098081;29;20013;-66
2023/07/24 07:46:22;;;;;;;;;;;;;;;22.21;nan;99973.97;4098217;28;20375;-66
2023/07/24 07:48:24;;;;;;;;;;;;;;;22.22;nan;99972.88;4098323;28;20025;-66
2023/07/24 07:50:26;;;;;;;;;;;;;;;22.23;nan;99971.78;4098748;28;20013;-67
2023/07/24 07:52:28;;;;;;;;;;;;;;;22.26;nan;99974.81;4098788;28;20017;-66
2023/07/24 07:54:30;;;;;;;;;;;;;;;22.29;nan;99976.19;4099268;28;20016;-66
2023/07/24 07:56:32;;;;;;;;;;;;;;;22.33;nan;99979.25;4098882;28;20021;-67
2023/07/24 07:58:36;;;;;;;;;;;;;;;22.34;nan;99969.91;4098895;28;20362;-67
2023/07/24 08:00:40;;;;;;;;;;;;;;;22.37;nan;99966.63;4098601;28;20013;-66
2023/07/24 08:02:42;;;;;;;;;;;;;;;22.39;nan;99972.66;4097319;28;20016;-67
2023/07/24 08:04:44;;;;;;;;;;;;;;;22.42;nan;99974.84;4098239;28;20009;-66
2023/07/24 08:06:46;;;;;;;;;;;;;;;22.43;nan;99968.22;4098256;28;20021;-67
2023/07/24 08:08:48;;;;;;;;;;;;;;;22.43;nan;99968.22;4098032;28;20444;-66
2023/07/24 08:10:50;;;;;;;;;;;;;;;22.44;nan;99962.47;4098226;28;20445;-66
2023/07/24 08:12:52;;;;;;;;;;;;;;;22.47;nan;99953.66;4089281;28;20370;-66
2023/07/24 08:14:58;;;;;;;;;;;;;;;22.46;nan;99948.44;4098874;28;20009;-65
2023/07/24 08:17:00;;;;;;;;;;;;;;;22.52;nan;99955.59;4098948;28;20024;-66
2023/07/24 08:19:02;;;;;;;;;;;;;;;22.57;nan;99944.59;4097582;28;20429;-66
2023/07/24 08:21:04;;;;;;;;;;;;;;;22.58;nan;99935.22;4098350;28;20013;-67
2023/07/24 08:23:06;;;;;;;;;;;;;;;22.62;nan;99938.25;4098883;28;20052;-67
2023/07/24 08:25:08;;;;;;;;;;;;;;;22.66;nan;99937.44;4099195;28;20017;-67
2023/07/24 08:27:10;;;;;;;;;;;;;;;22.68;nan;99937.97;4098086;28;20465;-66
2023/07/24 08:29:13;;;;;;;;;;;;;;;22.71;nan;99933.00;4097736;28;20001;-66
2023/07/24 08:31:16;;;;;;;;;;;;;;;22.74;nan;99940.72;4098447;28;20012;-64
2023/07/24 08:33:18;;;;;;;;;;;;;;;22.78;nan;99936.31;4097775;28;20363;-67
2023/07/24 08:35:20;;;;;;;;;;;;;;;22.81;nan;99924.75;4098139;28;20477;-67
2023/07/24 08:37:22;;;;;;;;;;;;;;;22.82;nan;99927.22;4097649;28;20013;-66
2023/07/24 08:39:24;;;;;;;;;;;;;;;22.82;nan;99929.13;4098136;28;20375;-66
2023/07/24 08:41:26;;;;;;;;;;;;;;;22.84;nan;99919.50;4098049;28;20024;-66
2023/07/24 08:43:28;;;;;;;;;;;;;;;22.85;nan;99931.31;4097514;28;20021;-66
2023/07/24 08:45:29;;;;;;;;;;;;;;;22.87;nan;99912.63;4097760;29;20013;-66
2023/07/24 08:47:33;;;;;;;;;;;;;;;22.86;nan;99914.53;4097066;28;20021;-67
2023/07/24 08:49:35;;;;;;;;;;;;;;;22.86;nan;99900.75;4095294;28;20026;-67
2023/07/24 08:51:37;;;;;;;;;;;;;;;22.88;nan;99902.41;4095683;28;20017;-66
2023/07/24 08:53:40;;;;;;;;;;;;;;;22.89;nan;99913.16;4112314;28;20017;-66
2023/07/24 08:55:42;;;;;;;;;;;;;;;22.92;nan;99912.59;4098036;28;20029;-67
2023/07/24 08:57:44;;;;;;;;;;;;;;;22.94;nan;99904.06;4097158;28;20021;-67
2023/07/24 08:59:46;;;;;;;;;;;;;;;22.96;nan;99888.91;4096405;28;20411;-66
2023/07/24 09:01:47;;;;;;;;;;;;;;;22.99;nan;99898.53;4098165;28;20021;-66
2023/07/24 09:03:51;;;;;;;;;;;;;;;23.04;nan;99898.53;4097691;28;20459;-66
2023/07/24 09:05:53;;;;;;;;;;;;;;;23.09;nan;99894.94;4097324;28;20029;-65
2023/07/24 09:07:55;;;;;;;;;;;;;;;23.11;nan;99888.06;4097382;28;20032;-66
2023/07/24 09:09:57;;;;;;;;;;;;;;;23.13;nan;99913.38;4095368;28;20365;-66
2023/07/24 09:11:59;;;;;;;;;;;;;;;23.18;nan;99890.50;4096942;28;20127;-66
2023/07/24 09:14:01;;;;;;;;;;;;;;;23.20;nan;99880.84;4096221;28;20418;-66
2023/07/24 09:16:03;;;;;;;;;;;;;;;23.22;nan;99877.81;4096975;28;20025;-66
2023/07/24 09:18:06;;;;;;;;;;;;;;;23.23;nan;99884.13;4096716;28;20005;-65
2023/07/24 09:20:10;;;;;;;;;;;;;;;23.26;nan;99876.16;4097553;28;20036;-65
2023/07/24 09:22:13;;;;;;;;;;;;;;;23.32;nan;99887.97;4095986;28;20026;-66
2023/07/24 09:24:15;;;;;;;;;;;;;;;23.36;nan;99900.88;4097468;28;20024;-66
2023/07/24 09:26:17;;;;;;;;;;;;;;;23.39;nan;99875.53;4098119;28;20452;-66
2023/07/24 09:28:18;;;;;;;;;;;;;;;23.42;nan;99868.63;4097490;28;20024;-67
2023/07/24 09:30:23;;;;;;;;;;;;;;;23.42;nan;99874.13;4096760;28;20024;-66
2023/07/24 09:32:25;;;;;;;;;;;;;;;23.44;nan;99874.66;4096509;28;20514;-66
2023/07/24 09:34:27;;;;;;;;;;;;;;;23.46;nan;99868.88;4097333;29;20017;-66
2023/07/24 09:36:37;;;;;;;;;;;;;;;23.47;nan;99871.34;4098582;28;19986;-66
2023/07/24 09:38:39;;;;;;;;;;;;;;;23.49;nan;99876.56;4096764;28;20013;-67
2023/07/24 09:40:43;;;;;;;;;;;;;;;23.51;nan;99875.19;4097130;28;20028;-66
2023/07/24 09:42:45;;;;;;;;;;;;;;;23.54;nan;99876.53;4096638;28;20013;-66
2023/07/24 09:44:47;;;;;;;;;;;;;;;23.55;nan;99872.69;4096880;28;20469;-66
2023/07/24 09:46:49;;;;;;;;;;;;;;;23.57;nan;99868.53;4097397;28;20110;-66
2023/07/24 09:48:51;;;;;;;;;;;;;;;23.61;nan;99867.97;4096601;28;20480;-65
2023/07/24 09:50:53;;;;;;;;;;;;;;;23.63;nan;99874.00;4095614;28;20013;-65
2023/07/24 09:52:57;;;;;;;;;;;;;;;23.64;nan;99878.44;4096030;28;20018;-67
2023/07/24 09:54:59;;;;;;;;;;;;;;;23.64;nan;99867.41;4097385;28;20029;-67
2023/07/24 09:57:02;;;;;;;;;;;;;;;23.64;nan;99862.72;4096815;28;20013;-66
2023/07/24 09:59:04;;;;;;;;;;;;;;;23.67;nan;99869.59;4096504;28;20021;-66
2023/07/24 10:01:07;;;;;;;;;;;;;;;23.67;nan;99858.56;4096409;28;20349;-66
2023/07/24 10:03:09;;;;;;;;;;;;;;;23.69;nan;99856.34;4096739;28;20017;-66
2023/07/24 10:05:11;;;;;;;;;;;;;;;23.71;nan;99854.94;4097148;28;20525;-66
2023/07/24 10:07:13;;;;;;;;;;;;;;;23.74;nan;99845.28;4096502;28;20013;-66
2023/07/24 10:09:18;;;;;;;;;;;;;;;23.77;nan;99846.63;4096706;28;20029;-67
2023/07/24 10:11:20;;;;;;;;;;;;;;;23.81;nan;99831.16;4096667;28;20021;-67
2023/07/24 10:13:23;;;;;;;;;;;;;;;23.83;nan;99829.75;4096614;28;20021;-66
2023/07/24 10:15:25;;;;;;;;;;;;;;;23.84;nan;99864.53;4096782;28;20018;-66
2023/07/24 10:17:36;;;;;;;;;;;;;;;23.88;nan;99829.75;4095831;28;20374;-66
2023/07/24 10:19:40;;;;;;;;;;;;;;;23.93;nan;99831.63;4096981;28;20362;-66
2023/07/24 10:21:44;;;;;;;;;;;;;;;23.97;nan;99824.44;4085917;28;20025;-65
2023/07/24 10:23:47;;;;;;;;;;;;;;;23.98;nan;99820.59;4095183;28;20449;-66
2023/07/24 10:25:52;;;;;;;;;;;;;;;23.99;nan;99822.22;4097339;28;20411;-66
2023/07/24 10:27:54;;;;;;;;;;;;;;;24.00;nan;99820.31;4096618;28;20056;-66
2023/07/24 10:29:59;;;;;;;;;;;;;;;24.01;nan;99830.19;4096753;28;20345;-66
2023/07/24 10:32:01;;;;;;;;;;;;;;;24.03;nan;99815.03;4096111;28;20034;-66
2023/07/24 10:34:04;;;;;;;;;;;;;;;24.05;nan;99806.47;4096597;28;20029;-66
2023/07/24 10:36:09;;;;;;;;;;;;;;;24.06;nan;99799.81;4096727;28;20433;-66
2023/07/24 10:38:11;;;;;;;;;;;;;;;24.07;nan;99791.25;4096229;28;20433;-66
2023/07/24 10:40:19;;;;;;;;;;;;;;;24.10;nan;99789.84;4096926;29;20013;-66
2023/07/24 10:42:23;;;;;;;;;;;;;;;24.12;nan;99779.34;4097453;28;20021;-66
2023/07/24 10:44:31;;;;;;;;;;;;;;;24.14;nan;99781.81;4098310;28;20017;-66
2023/07/24 10:46:36;;;;;;;;;;;;;;;24.16;nan;99776.84;4099120;28;20018;-66
2023/07/24 10:48:38;;;;;;;;;;;;;;;24.20;nan;99770.44;4098976;28;20033;-66